Time;durP1;ratioP1;P1;durP2;ratioP2;P2;SDS_P1;SDS_P2;PMS_P1;PMS_P2;Temp;Humidity;BMP_temperature;BMP_pressure;BME280_temperature;BME280_humidity;BME280_pressure;Samples;Min_cycle;Max_cycle;Signal;HPM_P1;HPM_P2
2023/07/24 00:00:22;;;;;;;46.53;43.97;;;;;;;;;;5083207;28;20016;-64
2023/07/24 00:02:48;;;;;;;62.28;59.10;;;;;;;;;;5079914;28;20159;-64
2023/07/24 00:05:13;;;;;;;39.35;37.35;;;;;;;;;;5076699;28;20051;-63
2023/07/24 00:07:39;;;;;;;39.60;37.55;;;;;;;;;;5079984;28;20039;-64
2023/07/24 00:10:04;;;;;;;38.42;36.42;;;;;;;;;;5080103;28;20480;-62
2023/07/24 00:12:30;;;;;;;36.60;34.72;;;;;;;;;;5079360;28;20028;-64
2023/07/24 00:14:55;;;;;;;38.83;36.83;;;;;;;;;;5078082;28;20032;-62
2023/07/24 00:17:21;;;;;;;39.33;37.25;;;;;;;;;;5075764;28;20044;-62
2023/07/24 00:19:46;;;;;;;31.40;29.70;;;;;;;;;;5079939;28;20024;-62
2023/07/24 00:22:11;;;;;;;43.90;41.67;;;;;;;;;;5079168;28;20043;-64
2023/07/24 00:24:37;;;;;;;42.95;40.70;;;;;;;;;;5079769;28;20138;-67
2023/07/24 00:27:02;;;;;;;39.78;37.75;;;;;;;;;;5075659;28;20465;-68
2023/07/24 00:29:28;;;;;;;30.13;28.52;;;;;;;;;;5080168;28;20402;-66
2023/07/24 00:31:53;;;;;;;34.30;32.55;;;;;;;;;;5079117;28;20040;-65
2023/07/24 00:34:19;;;;;;;30.20;28.55;;;;;;;;;;5077290;28;20127;-63
2023/07/24 00:36:44;;;;;;;28.83;27.25;;;;;;;;;;5081955;28;20028;-62
2023/07/24 00:39:09;;;;;;;24.00;22.73;;;;;;;;;;5080666;28;20066;-67
2023/07/24 00:41:35;;;;;;;42.20;26.95;;;;;;;;;;5078293;28;20354;-62
2023/07/24 00:44:00;;;;;;;35.75;33.90;;;;;;;;;;5076523;28;20370;-63
2023/07/24 00:46:25;;;;;;;30.48;28.83;;;;;;;;;;5079014;28;20036;-63
2023/07/24 00:48:53;;;;;;;25.10;23.75;;;;;;;;;;5079361;28;20052;-66
2023/07/24 00:51:19;;;;;;;26.20;24.77;;;;;;;;;;5078462;28;20047;-67
2023/07/24 00:53:47;;;;;;;27.52;26.05;;;;;;;;;;5079431;28;20024;-67
2023/07/24 00:56:13;;;;;;;22.02;20.33;;;;;;;;;;5080620;28;20455;-67
2023/07/24 00:58:38;;;;;;;20.25;18.95;;;;;;;;;;5079530;28;20102;-67
2023/07/24 01:01:04;;;;;;;24.35;23.05;;;;;;;;;;5078282;28;20355;-67
2023/07/24 01:03:33;;;;;;;20.73;19.58;;;;;;;;;;5078358;28;20044;-67
2023/07/24 01:06:00;;;;;;;19.33;18.25;;;;;;;;;;5077751;28;20040;-67
2023/07/24 01:08:27;;;;;;;21.40;20.23;;;;;;;;;;5079387;28;20050;-67
2023/07/24 01:10:53;;;;;;;19.67;18.58;;;;;;;;;;5081826;28;20089;-67
2023/07/24 01:13:25;;;;;;;18.30;17.20;;;;;;;;;;5069936;28;20044;-67
2023/07/24 01:15:56;;;;;;;18.00;17.00;;;;;;;;;;5078548;28;20115;-67
2023/07/24 01:18:24;;;;;;;17.45;16.45;;;;;;;;;;5079054;28;20142;-68
2023/07/24 01:20:58;;;;;;;19.42;18.23;;;;;;;;;;5078275;28;20074;-68
2023/07/24 01:23:57;;;;;;;16.80;15.85;;;;;;;;;;5081676;28;20036;-67
2023/07/24 01:26:25;;;;;;;16.70;15.80;;;;;;;;;;5079263;28;20147;-68
2023/07/24 01:28:51;;;;;;;17.42;16.42;;;;;;;;;;5080548;28;20020;-67
2023/07/24 01:31:17;;;;;;;19.20;18.10;;;;;;;;;;5077349;28;20478;-67
2023/07/24 01:33:43;;;;;;;19.35;18.25;;;;;;;;;;5076699;28;20101;-66
2023/07/24 01:36:09;;;;;;;15.73;14.63;;;;;;;;;;5078643;28;20047;-67
2023/07/24 01:38:35;;;;;;;16.40;15.50;;;;;;;;;;5080070;28;20048;-68
2023/07/24 01:41:02;;;;;;;17.92;16.92;;;;;;;;;;5077960;28;20028;-68
2023/07/24 01:43:29;;;;;;;22.75;21.45;;;;;;;;;;5076385;28;20040;-68
2023/07/24 01:45:55;;;;;;;17.85;16.20;;;;;;;;;;5079162;28;20027;-68
2023/07/24 01:48:20;;;;;;;20.65;19.52;;;;;;;;;;5078702;28;20058;-64
2023/07/24 01:50:45;;;;;;;15.13;14.23;;;;;;;;;;5076447;28;20028;-64
2023/07/24 01:53:11;;;;;;;16.70;15.80;;;;;;;;;;5078623;28;20048;-64
2023/07/24 01:55:36;;;;;;;16.83;15.82;;;;;;;;;;5078995;28;20039;-68
2023/07/24 01:58:01;;;;;;;16.95;15.95;;;;;;;;;;5080872;28;20036;-68
2023/07/24 02:00:27;;;;;;;15.68;14.77;;;;;;;;;;5079790;28;20024;-68
2023/07/24 02:02:52;;;;;;;15.10;14.20;;;;;;;;;;5080527;28;20036;-63
2023/07/24 02:05:18;;;;;;;21.90;20.70;;;;;;;;;;5077313;28;20033;-64
2023/07/24 02:07:43;;;;;;;23.27;22.08;;;;;;;;;;5077633;28;20379;-64
2023/07/24 02:10:09;;;;;;;17.88;16.77;;;;;;;;;;5080501;28;20024;-63
2023/07/24 02:12:34;;;;;;;22.80;21.50;;;;;;;;;;5078326;28;20026;-64
2023/07/24 02:15:00;;;;;;;16.70;15.80;;;;;;;;;;5077114;28;20036;-64
2023/07/24 02:17:25;;;;;;;19.95;18.65;;;;;;;;;;5077817;28;20446;-68
2023/07/24 02:19:50;;;;;;;14.43;13.63;;;;;;;;;;5074283;28;20047;-68
2023/07/24 02:22:16;;;;;;;15.38;14.48;;;;;;;;;;5078186;28;20046;-68
2023/07/24 02:24:41;;;;;;;15.32;14.43;;;;;;;;;;5079008;28;20541;-68
2023/07/24 02:27:07;;;;;;;16.95;15.95;;;;;;;;;;5075035;28;20042;-68
2023/07/24 02:29:32;;;;;;;15.70;14.80;;;;;;;;;;5075589;28;20076;-68
2023/07/24 02:31:58;;;;;;;15.98;15.07;;;;;;;;;;5077459;28;20120;-68
2023/07/24 02:34:26;;;;;;;18.70;17.70;;;;;;;;;;5075724;28;20550;-68
2023/07/24 02:36:55;;;;;;;19.27;18.17;;;;;;;;;;5079799;28;20040;-68
2023/07/24 02:39:21;;;;;;;30.88;29.23;;;;;;;;;;5073674;28;20032;-68
2023/07/24 02:41:47;;;;;;;23.88;22.50;;;;;;;;;;5077898;28;20040;-68
2023/07/24 02:44:13;;;;;;;22.55;21.05;;;;;;;;;;5074559;28;20665;-68
2023/07/24 02:46:38;;;;;;;18.35;17.25;;;;;;;;;;5074590;28;20096;-68
2023/07/24 02:49:04;;;;;;;19.48;18.38;;;;;;;;;;5078160;28;20024;-68
2023/07/24 02:51:30;;;;;;;16.17;15.18;;;;;;;;;;5075826;28;20024;-68
2023/07/24 02:53:55;;;;;;;17.55;16.50;;;;;;;;;;5076210;28;20029;-68
2023/07/24 02:56:21;;;;;;;16.77;15.68;;;;;;;;;;5075778;28;20071;-67
2023/07/24 02:58:46;;;;;;;16.30;15.40;;;;;;;;;;5081754;28;20036;-68
2023/07/24 03:01:13;;;;;;;16.65;15.65;;;;;;;;;;5081849;28;20111;-68
2023/07/24 03:03:42;;;;;;;17.45;16.42;;;;;;;;;;5084047;28;20036;-67
2023/07/24 03:06:08;;;;;;;16.48;15.48;;;;;;;;;;5079165;28;20024;-69
2023/07/24 03:08:33;;;;;;;18.02;16.92;;;;;;;;;;5082844;28;20626;-68
2023/07/24 03:10:59;;;;;;;16.75;15.75;;;;;;;;;;5082165;28;20025;-67
2023/07/24 03:13:24;;;;;;;15.80;14.90;;;;;;;;;;5081577;28;20482;-68
2023/07/24 03:15:57;;;;;;;17.05;15.90;;;;;;;;;;5083404;28;20028;-68
2023/07/24 03:18:23;;;;;;;16.58;15.63;;;;;;;;;;5079543;28;20127;-63
2023/07/24 03:20:48;;;;;;;16.77;15.77;;;;;;;;;;5081586;28;20245;-67
2023/07/24 03:23:14;;;;;;;16.10;15.10;;;;;;;;;;5078597;28;20126;-67
2023/07/24 03:25:39;;;;;;;16.92;15.90;;;;;;;;;;5079749;28;20036;-67
2023/07/24 03:28:04;;;;;;;16.27;15.27;;;;;;;;;;5081168;28;20052;-67
2023/07/24 03:30:30;;;;;;;18.15;17.15;;;;;;;;;;5080341;28;20047;-67
2023/07/24 03:32:57;;;;;;;17.95;16.85;;;;;;;;;;5082213;28;20060;-68
2023/07/24 03:35:22;;;;;;;19.98;18.77;;;;;;;;;;5078223;28;20429;-67
2023/07/24 03:37:47;;;;;;;20.27;18.50;;;;;;;;;;5082142;28;20170;-68
2023/07/24 03:40:13;;;;;;;18.52;17.50;;;;;;;;;;5079168;28;20430;-63
2023/07/24 03:42:39;;;;;;;16.80;15.80;;;;;;;;;;5078244;28;20369;-63
2023/07/24 03:45:06;;;;;;;18.38;17.25;;;;;;;;;;5082225;28;20024;-67
2023/07/24 03:47:31;;;;;;;21.30;20.13;;;;;;;;;;5080348;28;20221;-68
2023/07/24 03:49:57;;;;;;;20.60;19.40;;;;;;;;;;5080087;28;20437;-67
2023/07/24 03:52:22;;;;;;;29.27;20.40;;;;;;;;;;5080330;28;20032;-67
2023/07/24 03:54:47;;;;;;;19.75;18.65;;;;;;;;;;5082488;28;20135;-67
2023/07/24 03:57:13;;;;;;;18.42;17.33;;;;;;;;;;5082067;28;20035;-67
2023/07/24 03:59:38;;;;;;;19.38;18.27;;;;;;;;;;5079103;28;20035;-67
2023/07/24 04:02:04;;;;;;;22.08;20.85;;;;;;;;;;5075812;28;20457;-68
2023/07/24 04:04:30;;;;;;;18.77;17.67;;;;;;;;;;5080654;28;20056;-64
2023/07/24 04:06:56;;;;;;;17.65;16.55;;;;;;;;;;5079442;28;20649;-64
2023/07/24 04:09:21;;;;;;;20.80;19.60;;;;;;;;;;5082524;28;20027;-64
2023/07/24 04:11:47;;;;;;;25.17;23.77;;;;;;;;;;5077133;28;20028;-63
2023/07/24 04:14:12;;;;;;;27.23;25.73;;;;;;;;;;5080646;28;20066;-68
2023/07/24 04:16:37;;;;;;;20.70;19.50;;;;;;;;;;5078258;28;20354;-67
2023/07/24 04:19:03;;;;;;;25.65;24.25;;;;;;;;;;5080106;28;20092;-63
2023/07/24 04:21:29;;;;;;;23.92;22.23;;;;;;;;;;5077055;28;20462;-63
2023/07/24 04:23:54;;;;;;;20.70;19.50;;;;;;;;;;5081626;28;20447;-64
2023/07/24 04:26:20;;;;;;;21.50;20.30;;;;;;;;;;5077852;28;20043;-63
2023/07/24 04:28:45;;;;;;;17.42;16.33;;;;;;;;;;5079725;28;20487;-63
2023/07/24 04:31:10;;;;;;;18.02;16.60;;;;;;;;;;5079082;28;20032;-63
2023/07/24 04:33:36;;;;;;;19.48;18.40;;;;;;;;;;5078981;28;20443;-63
2023/07/24 04:36:01;;;;;;;19.77;18.67;;;;;;;;;;5079861;28;20036;-64
2023/07/24 04:38:27;;;;;;;20.83;19.63;;;;;;;;;;5076832;28;20139;-64
2023/07/24 04:40:52;;;;;;;17.52;15.60;;;;;;;;;;5079247;28;20056;-63
2023/07/24 04:43:18;;;;;;;18.95;17.90;;;;;;;;;;5082872;28;20040;-63
2023/07/24 04:45:43;;;;;;;16.77;15.77;;;;;;;;;;5076088;28;20061;-63
2023/07/24 04:48:08;;;;;;;19.05;17.85;;;;;;;;;;5079101;28;20650;-63
2023/07/24 04:50:34;;;;;;;16.55;15.57;;;;;;;;;;5077681;28;20020;-63
2023/07/24 04:52:59;;;;;;;16.58;15.57;;;;;;;;;;5096310;28;20024;-63
2023/07/24 04:55:25;;;;;;;18.83;17.80;;;;;;;;;;5076181;28;20534;-63
2023/07/24 04:57:50;;;;;;;17.25;16.25;;;;;;;;;;5047263;28;20421;-63
2023/07/24 05:00:16;;;;;;;17.15;16.15;;;;;;;;;;5078358;28;20103;-63
2023/07/24 05:02:41;;;;;;;18.13;17.02;;;;;;;;;;5079929;28;20040;-63
2023/07/24 05:05:07;;;;;;;20.52;19.15;;;;;;;;;;5078893;28;20036;-65
2023/07/24 05:07:32;;;;;;;23.25;21.95;;;;;;;;;;5082148;28;20181;-63
2023/07/24 05:09:59;;;;;;;25.42;23.92;;;;;;;;;;5079548;28;20657;-64
2023/07/24 05:12:24;;;;;;;29.42;27.65;;;;;;;;;;5080676;28;20414;-63
2023/07/24 05:14:50;;;;;;;23.73;22.38;;;;;;;;;;5083637;28;20116;-64
2023/07/24 05:17:15;;;;;;;21.23;20.02;;;;;;;;;;5081153;28;20070;-64
2023/07/24 05:19:40;;;;;;;26.25;24.85;;;;;;;;;;5077018;28;20103;-64
2023/07/24 05:22:06;;;;;;;21.48;20.27;;;;;;;;;;5075588;28;20046;-64
2023/07/24 05:24:31;;;;;;;28.80;27.23;;;;;;;;;;5076723;28;20408;-68
2023/07/24 05:26:57;;;;;;;29.77;28.08;;;;;;;;;;5076837;28;20035;-68
2023/07/24 05:29:22;;;;;;;26.13;24.63;;;;;;;;;;5080103;28;20423;-64
2023/07/24 05:31:47;;;;;;;28.08;26.58;;;;;;;;;;5077014;28;20036;-64
2023/07/24 05:34:13;;;;;;;22.73;21.48;;;;;;;;;;5080986;28;20172;-68
2023/07/24 05:36:40;;;;;;;27.55;26.05;;;;;;;;;;5077589;28;20366;-65
2023/07/24 05:39:05;;;;;;;27.52;25.65;;;;;;;;;;5080208;28;20086;-65
2023/07/24 05:41:31;;;;;;;28.77;27.02;;;;;;;;;;5076884;28;20040;-64
2023/07/24 05:43:56;;;;;;;29.58;27.88;;;;;;;;;;5077453;28;20088;-64
2023/07/24 05:46:22;;;;;;;31.15;29.17;;;;;;;;;;5080300;28;20101;-63
2023/07/24 05:48:47;;;;;;;21.50;20.27;;;;;;;;;;5080379;28;20028;-64
2023/07/24 05:51:13;;;;;;;25.77;24.02;;;;;;;;;;5075974;28;20055;-64
2023/07/24 05:53:38;;;;;;;27.63;26.17;;;;;;;;;;5079884;28;20461;-63
2023/07/24 05:56:04;;;;;;;33.88;31.90;;;;;;;;;;5080721;28;20046;-64
2023/07/24 05:58:29;;;;;;;29.33;27.38;;;;;;;;;;5080729;28;20032;-63
2023/07/24 06:00:55;;;;;;;28.80;27.23;;;;;;;;;;5079479;28;20047;-64
2023/07/24 06:03:22;;;;;;;25.63;22.92;;;;;;;;;;5078636;28;20142;-64
2023/07/24 06:05:52;;;;;;;25.75;24.30;;;;;;;;;;5076607;28;20479;-64
2023/07/24 06:08:17;;;;;;;18.90;17.83;;;;;;;;;;5077660;28;20051;-63
2023/07/24 06:10:42;;;;;;;21.67;20.38;;;;;;;;;;5076265;28;20040;-64
2023/07/24 06:13:08;;;;;;;24.23;22.70;;;;;;;;;;5077853;28;20485;-71
2023/07/24 06:15:33;;;;;;;27.63;25.95;;;;;;;;;;5076008;28;20047;-71
2023/07/24 06:17:58;;;;;;;29.55;27.77;;;;;;;;;;5077424;28;20347;-69
2023/07/24 06:20:24;;;;;;;25.65;24.08;;;;;;;;;;5074917;28;20040;-70
2023/07/24 06:22:49;;;;;;;26.52;25.13;;;;;;;;;;5075428;28;20032;-70
2023/07/24 06:25:14;;;;;;;20.58;19.27;;;;;;;;;;5076188;28;20706;-70
2023/07/24 06:27:40;;;;;;;33.90;32.03;;;;;;;;;;5077699;28;20036;-69
2023/07/24 06:30:06;;;;;;;26.75;25.25;;;;;;;;;;5074789;28;20419;-70
2023/07/24 06:32:31;;;;;;;24.15;22.75;;;;;;;;;;5071501;28;20051;-70
2023/07/24 06:34:56;;;;;;;23.48;22.08;;;;;;;;;;5077361;28;20036;-71
2023/07/24 06:37:21;;;;;;;24.38;22.88;;;;;;;;;;5077861;28;20036;-70
2023/07/24 06:39:47;;;;;;;29.98;28.30;;;;;;;;;;5072132;28;20064;-70
2023/07/24 06:42:13;;;;;;;39.13;37.03;;;;;;;;;;5077995;28;20309;-71
2023/07/24 06:44:39;;;;;;;29.77;28.08;;;;;;;;;;5071686;28;20112;-71
2023/07/24 06:47:04;;;;;;;76.82;72.95;;;;;;;;;;5075870;28;20144;-71
2023/07/24 06:49:29;;;;;;;35.17;33.33;;;;;;;;;;5074841;28;20115;-71
2023/07/24 06:51:55;;;;;;;52.25;49.53;;;;;;;;;;5079291;28;20599;-72
2023/07/24 06:54:20;;;;;;;49.78;47.25;;;;;;;;;;5077365;28;20615;-71
2023/07/24 06:56:45;;;;;;;103.32;98.03;;;;;;;;;;5078594;28;20347;-71
2023/07/24 06:59:11;;;;;;;88.88;84.47;;;;;;;;;;5076158;28;20090;-71
2023/07/24 07:01:36;;;;;;;102.38;97.25;;;;;;;;;;5073100;28;20377;-71
2023/07/24 07:04:02;;;;;;;90.80;85.85;;;;;;;;;;5076266;28;20189;-71
2023/07/24 07:06:27;;;;;;;118.32;112.47;;;;;;;;;;5073467;28;20032;-71
2023/07/24 07:08:52;;;;;;;91.03;86.47;;;;;;;;;;5078132;28;20028;-71
2023/07/24 07:11:18;;;;;;;106.68;101.35;;;;;;;;;;5080576;28;20035;-70
2023/07/24 07:13:43;;;;;;;87.57;83.28;;;;;;;;;;5071610;28;20032;-71
2023/07/24 07:16:08;;;;;;;120.53;114.57;;;;;;;;;;5073453;28;20040;-71
2023/07/24 07:18:34;;;;;;;87.55;83.15;;;;;;;;;;5077744;28;20115;-71
2023/07/24 07:20:59;;;;;;;127.05;120.75;;;;;;;;;;5072110;28;20035;-72
2023/07/24 07:23:24;;;;;;;95.82;91.03;;;;;;;;;;5078193;28;20103;-71
2023/07/24 07:25:51;;;;;;;99.82;94.88;;;;;;;;;;5072127;28;20400;-72
2023/07/24 07:28:17;;;;;;;148.50;141.18;;;;;;;;;;5074877;28;20667;-71
2023/07/24 07:30:43;;;;;;;102.60;97.43;;;;;;;;;;5073316;28;20095;-72
2023/07/24 07:33:09;;;;;;;118.50;112.47;;;;;;;;;;5072180;28;20028;-71
2023/07/24 07:35:35;;;;;;;114.03;108.30;;;;;;;;;;5066277;28;20121;-72
2023/07/24 07:38:01;;;;;;;149.77;142.43;;;;;;;;;;5071093;28;20036;-68
2023/07/24 07:40:27;;;;;;;226.48;215.48;;;;;;;;;;5074468;28;20039;-67
2023/07/24 07:42:56;;;;;;;199.65;189.98;;;;;;;;;;5076473;28;20036;-68
2023/07/24 07:45:23;;;;;;;226.13;215.20;;;;;;;;;;5075175;28;20485;-69
2023/07/24 07:47:48;;;;;;;242.45;230.73;;;;;;;;;;5080134;28;20107;-69
2023/07/24 07:50:14;;;;;;;155.40;147.73;;;;;;;;;;5079818;28;20712;-68
2023/07/24 07:52:39;;;;;;;169.88;161.48;;;;;;;;;;5082880;28;20028;-68
2023/07/24 07:55:06;;;;;;;200.55;190.65;;;;;;;;;;5077649;28;20036;-68
2023/07/24 07:57:34;;;;;;;218.73;208.10;;;;;;;;;;5077367;28;20054;-68
2023/07/24 07:59:59;;;;;;;180.90;171.93;;;;;;;;;;5080432;28;20059;-68
2023/07/24 08:02:25;;;;;;;237.27;225.80;;;;;;;;;;5080990;28;20113;-68
2023/07/24 08:04:50;;;;;;;235.95;224.55;;;;;;;;;;5078950;28;20052;-69
2023/07/24 08:07:15;;;;;;;222.80;211.98;;;;;;;;;;5079698;28;20059;-68
2023/07/24 08:09:41;;;;;;;172.93;164.40;;;;;;;;;;5079437;28;20033;-68
2023/07/24 08:12:07;;;;;;;241.85;230.20;;;;;;;;;;5084810;28;20371;-70
2023/07/24 08:14:32;;;;;;;265.77;252.95;;;;;;;;;;5078322;28;20101;-69
2023/07/24 08:16:58;;;;;;;244.02;232.13;;;;;;;;;;5075988;28;20466;-70
2023/07/24 08:19:23;;;;;;;196.38;186.75;;;;;;;;;;5080449;28;20032;-67
2023/07/24 08:21:49;;;;;;;235.55;223.85;;;;;;;;;;5079156;28;20478;-68
2023/07/24 08:24:14;;;;;;;180.63;171.63;;;;;;;;;;5079881;28;20477;-68
2023/07/24 08:26:39;;;;;;;219.93;209.25;;;;;;;;;;5077651;28;20517;-68
2023/07/24 08:29:05;;;;;;;209.27;198.90;;;;;;;;;;5080147;28;20123;-68
2023/07/24 08:31:31;;;;;;;137.80;130.95;;;;;;;;;;5080508;28;20067;-69
2023/07/24 08:33:56;;;;;;;158.40;150.60;;;;;;;;;;5076743;28;20043;-68
2023/07/24 08:36:22;;;;;;;112.07;106.53;;;;;;;;;;5080813;28;20454;-68
2023/07/24 08:38:47;;;;;;;133.38;126.78;;;;;;;;;;5073920;28;20029;-68
2023/07/24 08:41:14;;;;;;;134.98;128.18;;;;;;;;;;5080973;28;20114;-69
2023/07/24 08:43:43;;;;;;;235.52;224.07;;;;;;;;;;5082835;28;20040;-70
2023/07/24 08:46:09;;;;;;;244.65;232.70;;;;;;;;;;5080885;28;20481;-70
2023/07/24 08:48:40;;;;;;;224.50;213.32;;;;;;;;;;5079299;28;20027;-69
2023/07/24 08:51:10;;;;;;;193.23;183.75;;;;;;;;;;5079962;28;20055;-68
2023/07/24 08:53:38;;;;;;;208.45;198.20;;;;;;;;;;5077183;28;20687;-71
2023/07/24 08:56:08;;;;;;;154.55;146.82;;;;;;;;;;5080491;28;20043;-69
2023/07/24 08:58:34;;;;;;;131.18;124.68;;;;;;;;;;5079451;28;20039;-67
2023/07/24 09:01:01;;;;;;;125.28;119.05;;;;;;;;;;5081256;28;20453;-69
2023/07/24 09:03:28;;;;;;;145.82;138.65;;;;;;;;;;5076411;28;20051;-69
2023/07/24 09:05:53;;;;;;;196.38;186.75;;;;;;;;;;5075655;28;20343;-70
2023/07/24 09:08:32;;;;;;;223.57;212.65;;;;;;;;;;5079018;28;20568;-70
2023/07/24 09:11:02;;;;;;;164.43;156.25;;;;;;;;;;5080496;28;20124;-71
2023/07/24 09:13:28;;;;;;;82.60;78.40;;;;;;;;;;5078183;28;20119;-70
2023/07/24 09:15:55;;;;;;;83.13;78.97;;;;;;;;;;5074553;28;20503;-70
2023/07/24 09:18:21;;;;;;;101.75;96.63;;;;;;;;;;5080848;28;20071;-70
2023/07/24 09:20:47;;;;;;;119.68;113.70;;;;;;;;;;5080159;28;20351;-70
2023/07/24 09:23:13;;;;;;;89.60;83.70;;;;;;;;;;5077957;28;20378;-69
2023/07/24 09:25:42;;;;;;;89.97;85.07;;;;;;;;;;5077428;28;20035;-69
2023/07/24 09:28:11;;;;;;;78.95;74.95;;;;;;;;;;5077535;28;20244;-71
2023/07/24 09:30:38;;;;;;;101.88;96.80;;;;;;;;;;5079299;28;20032;-71
2023/07/24 09:33:03;;;;;;;137.55;130.70;;;;;;;;;;5076792;28;20024;-70
2023/07/24 09:35:29;;;;;;;140.20;133.07;;;;;;;;;;5075304;28;20044;-71
2023/07/24 09:38:08;;;;;;;140.18;133.25;;;;;;;;;;5075537;28;20063;-71
2023/07/24 09:40:43;;;;;;;106.82;101.57;;;;;;;;;;5078781;28;20051;-70
2023/07/24 09:43:25;;;;;;;113.32;107.70;;;;;;;;;;5078421;28;20451;-71
2023/07/24 09:45:52;;;;;;;143.40;136.30;;;;;;;;;;5077619;28;20040;-70
2023/07/24 09:48:20;;;;;;;139.60;132.70;;;;;;;;;;5076621;28;20488;-71
2023/07/24 09:50:53;;;;;;;123.50;117.30;;;;;;;;;;5075956;28;20039;-69
2023/07/24 09:53:28;;;;;;;139.73;132.65;;;;;;;;;;5075899;28;20469;-70
2023/07/24 09:55:59;;;;;;;176.23;167.48;;;;;;;;;;5079290;28;20048;-69
2023/07/24 09:58:25;;;;;;;150.85;143.38;;;;;;;;;;5078085;28;20496;-69
2023/07/24 10:00:52;;;;;;;171.30;162.88;;;;;;;;;;5079384;28;20170;-70
2023/07/24 10:03:20;;;;;;;85.60;81.38;;;;;;;;;;5078064;28;20454;-71
2023/07/24 10:05:46;;;;;;;81.80;77.63;;;;;;;;;;5075699;28;20066;-70
2023/07/24 10:08:14;;;;;;;84.20;80.00;;;;;;;;;;5076415;28;20035;-70
2023/07/24 10:10:40;;;;;;;76.72;72.75;;;;;;;;;;5077986;28;20023;-71
2023/07/24 10:13:06;;;;;;;99.90;94.93;;;;;;;;;;5079143;28;20024;-69
2023/07/24 10:15:32;;;;;;;107.13;101.68;;;;;;;;;;5079185;28;20097;-70
2023/07/24 10:18:07;;;;;;;92.82;88.18;;;;;;;;;;5074712;28;20110;-68
2023/07/24 10:20:35;;;;;;;113.03;107.38;;;;;;;;;;5074925;28;20469;-70
2023/07/24 10:23:03;;;;;;;116.20;110.38;;;;;;;;;;5078381;28;20107;-69
2023/07/24 10:25:33;;;;;;;124.90;118.68;;;;;;;;;;5071364;28;20037;-69
2023/07/24 10:28:07;;;;;;;96.53;91.55;;;;;;;;;;5076690;28;20741;-70
2023/07/24 10:30:34;;;;;;;98.68;93.70;;;;;;;;;;5077159;28;20131;-70
2023/07/24 10:33:18;;;;;;;121.22;115.18;;;;;;;;;;5077579;28;20079;-69
2023/07/24 10:35:49;;;;;;;87.20;82.88;;;;;;;;;;5079287;28;20028;-68
2023/07/24 10:38:16;;;;;;;70.00;66.47;;;;;;;;;;5078290;28;20070;-71
2023/07/24 10:40:44;;;;;;;78.82;74.88;;;;;;;;;;5079925;28;20089;-69
2023/07/24 10:43:17;;;;;;;85.65;81.38;;;;;;;;;;5078201;28;20036;-68
2023/07/24 10:45:53;;;;;;;83.65;79.47;;;;;;;;;;5078419;28;20424;-68
2023/07/24 10:48:20;;;;;;;74.93;70.90;;;;;;;;;;5076858;28;20036;-70
2023/07/24 10:50:48;;;;;;;77.57;73.72;;;;;;;;;;5075205;28;20118;-71
2023/07/24 10:53:15;;;;;;;83.40;79.15;;;;;;;;;;5076447;28;20401;-71
2023/07/24 10:55:41;;;;;;;96.07;91.28;;;;;;;;;;5078172;28;20413;-70
2023/07/24 10:58:07;;;;;;;123.75;117.60;;;;;;;;;;5076103;28;20323;-70
2023/07/24 11:00:33;;;;;;;151.18;143.70;;;;;;;;;;5079165;28;20051;-68
2023/07/24 11:02:58;;;;;;;136.30;129.50;;;;;;;;;;5059228;28;20028;-71
2023/07/24 11:05:24;;;;;;;151.82;144.30;;;;;;;;;;5075429;28;20075;-70
2023/07/24 11:07:49;;;;;;;149.23;141.85;;;;;;;;;;5075041;28;20060;-71
2023/07/24 11:10:20;;;;;;;130.10;123.55;;;;;;;;;;5078056;28;20040;-67
2023/07/24 11:12:46;;;;;;;142.77;135.73;;;;;;;;;;5073610;28;20078;-70
2023/07/24 11:15:13;;;;;;;153.73;146.13;;;;;;;;;;5075087;28;20135;-69
2023/07/24 11:17:40;;;;;;;138.65;131.80;;;;;;;;;;5075786;28;20045;-68
2023/07/24 11:20:14;;;;;;;164.40;156.30;;;;;;;;;;5082302;28;20117;-69
2023/07/24 11:22:41;;;;;;;119.80;113.85;;;;;;;;;;5081297;28;20036;-69
2023/07/24 11:25:08;;;;;;;161.23;153.30;;;;;;;;;;5079532;28;20534;-69
2023/07/24 11:27:38;;;;;;;141.18;134.18;;;;;;;;;;5080085;28;20107;-69
2023/07/24 11:30:04;;;;;;;141.55;134.40;;;;;;;;;;5077780;28;20016;-70
2023/07/24 11:32:30;;;;;;;119.88;113.95;;;;;;;;;;5080636;28;20193;-69
2023/07/24 11:34:56;;;;;;;130.45;123.93;;;;;;;;;;5080487;28;20111;-69
2023/07/24 11:37:21;;;;;;;126.03;119.78;;;;;;;;;;5077587;28;20032;-71
2023/07/24 11:39:57;;;;;;;57.42;54.55;;;;;;;;;;5075822;28;20122;-69
2023/07/24 11:42:25;;;;;;;92.18;87.57;;;;;;;;;;5080846;28;20042;-71
2023/07/24 11:44:51;;;;;;;46.53;44.15;;;;;;;;;;5077127;28;20481;-68
2023/07/24 11:47:16;;;;;;;41.33;39.10;;;;;;;;;;5076773;28;20039;-67
2023/07/24 11:49:47;;;;;;;44.88;42.55;;;;;;;;;;5078803;28;20030;-68
2023/07/24 11:52:13;;;;;;;35.80;33.97;;;;;;;;;;5079068;28;20032;-69
2023/07/24 11:54:39;;;;;;;40.55;38.47;;;;;;;;;;5079445;28;20042;-69
2023/07/24 11:57:15;;;;;;;57.50;54.50;;;;;;;;;;5079721;28;20480;-68
2023/07/24 11:59:41;;;;;;;46.80;44.38;;;;;;;;;;5074625;28;20128;-67
2023/07/24 12:02:10;;;;;;;47.97;45.08;;;;;;;;;;5078946;28;20119;-70
2023/07/24 12:04:35;;;;;;;47.33;44.83;;;;;;;;;;5079032;28;20135;-69
2023/07/24 12:07:01;;;;;;;59.30;56.25;;;;;;;;;;5079139;28;20115;-68
2023/07/24 12:09:30;;;;;;;43.00;40.80;;;;;;;;;;5079498;28;20028;-68
2023/07/24 12:11:58;;;;;;;37.03;35.05;;;;;;;;;;5085337;28;20115;-69
2023/07/24 12:14:23;;;;;;;38.33;36.35;;;;;;;;;;5077152;28;20029;-69
2023/07/24 12:16:49;;;;;;;58.08;55.13;;;;;;;;;;5078731;28;20059;-68
2023/07/24 12:19:14;;;;;;;60.13;57.13;;;;;;;;;;5079188;28;20071;-68
2023/07/24 12:21:39;;;;;;;48.05;45.55;;;;;;;;;;5074777;28;20083;-68
2023/07/24 12:24:05;;;;;;;36.10;34.15;;;;;;;;;;5077147;28;20032;-70
2023/07/24 12:26:30;;;;;;;51.80;49.15;;;;;;;;;;5078186;28;20032;-69
2023/07/24 12:28:56;;;;;;;68.43;64.97;;;;;;;;;;5076533;28;20041;-68
2023/07/24 12:31:22;;;;;;;60.22;57.15;;;;;;;;;;5073042;28;20036;-68
2023/07/24 12:33:47;;;;;;;69.72;65.90;;;;;;;;;;5077814;28;20623;-69
2023/07/24 12:36:13;;;;;;;57.63;54.72;;;;;;;;;;5077390;28;20031;-66
2023/07/24 12:38:38;;;;;;;45.22;42.92;;;;;;;;;;5076273;28;20616;-68
2023/07/24 12:41:03;;;;;;;44.30;42.00;;;;;;;;;;5078626;28;20035;-69
2023/07/24 12:43:29;;;;;;;39.00;37.00;;;;;;;;;;5075314;28;20093;-69
2023/07/24 12:45:54;;;;;;;25.75;24.35;;;;;;;;;;5077970;28;20028;-68
2023/07/24 12:48:20;;;;;;;27.80;26.30;;;;;;;;;;5080611;28;20453;-68
2023/07/24 12:50:45;;;;;;;27.80;26.30;;;;;;;;;;5077674;28;20117;-69
2023/07/24 12:53:10;;;;;;;36.58;34.63;;;;;;;;;;5076567;28;20127;-69
2023/07/24 12:55:36;;;;;;;29.88;28.27;;;;;;;;;;5079702;28;20444;-69
2023/07/24 12:58:03;;;;;;;33.70;31.90;;;;;;;;;;5073829;28;20109;-67
2023/07/24 13:00:29;;;;;;;25.08;23.75;;;;;;;;;;5065261;28;20484;-69
2023/07/24 13:02:55;;;;;;;30.58;28.95;;;;;;;;;;5077200;28;20028;-68
2023/07/24 13:05:20;;;;;;;31.02;29.42;;;;;;;;;;5077409;28;20036;-70
2023/07/24 13:07:46;;;;;;;34.58;32.78;;;;;;;;;;5074770;28;20094;-69
2023/07/24 13:10:11;;;;;;;32.25;30.55;;;;;;;;;;5073425;28;20039;-69
2023/07/24 13:12:37;;;;;;;34.80;33.00;;;;;;;;;;5073562;28;20093;-69
2023/07/24 13:15:02;;;;;;;37.42;35.53;;;;;;;;;;5079140;28;20530;-68
2023/07/24 13:17:29;;;;;;;31.20;29.55;;;;;;;;;;5075500;28;20072;-68
2023/07/24 13:19:54;;;;;;;36.17;34.30;;;;;;;;;;5071218;28;20142;-69
2023/07/24 13:22:20;;;;;;;75.55;71.32;;;;;;;;;;5071297;28;20387;-68
2023/07/24 13:24:45;;;;;;;62.42;59.25;;;;;;;;;;5076266;28;20492;-68
2023/07/24 13:27:10;;;;;;;55.10;52.28;;;;;;;;;;5076568;28;20765;-69
2023/07/24 13:29:36;;;;;;;141.82;134.77;;;;;;;;;;5074872;28;20037;-69
2023/07/24 13:32:01;;;;;;;77.55;73.63;;;;;;;;;;5082173;28;20035;-70
2023/07/24 13:34:26;;;;;;;125.65;119.40;;;;;;;;;;5076003;28;20050;-69
2023/07/24 13:36:52;;;;;;;116.63;110.85;;;;;;;;;;5077379;28;20028;-70
2023/07/24 13:39:17;;;;;;;160.32;152.38;;;;;;;;;;5074489;28;20048;-69
2023/07/24 13:41:42;;;;;;;155.52;147.55;;;;;;;;;;5076345;28;20041;-69
2023/07/24 13:44:09;;;;;;;172.73;164.25;;;;;;;;;;5077633;28;20036;-69
2023/07/24 13:46:35;;;;;;;133.65;126.93;;;;;;;;;;5077009;28;20036;-67
2023/07/24 13:49:00;;;;;;;148.60;141.27;;;;;;;;;;5077241;28;20032;-71
2023/07/24 13:51:25;;;;;;;98.85;93.57;;;;;;;;;;5078233;28;20032;-69
2023/07/24 13:53:51;;;;;;;78.63;74.57;;;;;;;;;;5076208;28;20032;-69
2023/07/24 13:56:18;;;;;;;97.72;92.65;;;;;;;;;;5077039;28;20046;-68
2023/07/24 13:58:44;;;;;;;143.85;136.68;;;;;;;;;;5080271;28;20034;-73
2023/07/24 14:01:10;;;;;;;164.95;156.63;;;;;;;;;;5079651;28;20048;-71
2023/07/24 14:03:35;;;;;;;174.90;166.13;;;;;;;;;;5073424;28;20249;-72
2023/07/24 14:06:00;;;;;;;237.32;225.77;;;;;;;;;;5076545;28;20036;-68